Time;durP1;ratioP1;P1;durP2;ratioP2;P2;SDS_P1;SDS_P2;PMS_P1;PMS_P2;Temp;Humidity;BMP_temperature;BMP_pressure;BME280_temperature;BME280_humidity;BME280_pressure;Samples;Min_cycle;Max_cycle;Signal;HPM_P1;HPM_P2
2023/10/07 00:02:59;;;;;;;;;;;18.60;88.90;;;;;;5098163;28;20015;-55
2023/10/07 00:05:32;;;;;;;;;;;18.60;89.00;;;;;;5091182;28;20303;-56
2023/10/07 00:08:00;;;;;;;;;;;18.60;89.10;;;;;;5088641;28;19912;-56
2023/10/07 00:10:30;;;;;;;;;;;18.60;89.10;;;;;;5084747;28;19961;-55
2023/10/07 00:13:00;;;;;;;;;;;18.60;89.10;;;;;;5082507;28;20013;-55
2023/10/07 00:15:29;;;;;;;;;;;18.60;89.10;;;;;;5086291;28;20013;-55
2023/10/07 00:17:58;;;;;;;;;;;18.60;89.10;;;;;;5089493;28;20186;-56
2023/10/07 00:20:24;;;;;;;;;;;18.60;89.10;;;;;;5091678;28;20243;-56
2023/10/07 00:22:54;;;;;;;;;;;18.60;89.10;;;;;;5088125;28;19920;-55
2023/10/07 00:25:20;;;;;;;;;;;18.60;89.10;;;;;;5088039;28;19922;-55
2023/10/07 00:27:47;;;;;;;;;;;18.60;89.10;;;;;;5093716;28;19916;-56
2023/10/07 00:30:15;;;;;;;;;;;18.60;89.10;;;;;;5090752;28;19916;-55
2023/10/07 00:32:41;;;;;;;;;;;18.60;89.10;;;;;;5087747;28;20337;-56
2023/10/07 00:35:07;;;;;;;;;;;18.60;89.10;;;;;;5085755;28;19962;-55
2023/10/07 00:37:37;;;;;;;;;;;18.60;89.10;;;;;;5086353;28;19918;-56
2023/10/07 00:42:54;;;;;;;;;;;18.50;89.00;;;;;;5068598;28;19974;-55
2023/10/07 00:45:20;;;;;;;;;;;18.50;89.00;;;;;;5089854;28;19980;-56
2023/10/07 00:47:49;;;;;;;;;;;18.50;89.00;;;;;;5085168;28;19942;-55
2023/10/07 00:50:15;;;;;;;;;;;18.50;89.00;;;;;;5086918;28;20352;-54
2023/10/07 00:52:45;;;;;;;;;;;18.50;89.00;;;;;;5090497;28;19924;-55
2023/10/07 00:55:17;;;;;;;;;;;18.60;89.20;;;;;;5082677;28;19916;-56
2023/10/07 00:57:47;;;;;;;;;;;18.50;89.10;;;;;;5096021;28;20337;-56
2023/10/07 01:02:46;;;;;;;;;;;18.50;89.00;;;;;;5096797;28;19938;-56
2023/10/07 01:05:27;;;;;;;;;;;18.60;89.30;;;;;;5086418;28;19916;-55
2023/10/07 01:07:56;;;;;;;;;;;18.50;89.20;;;;;;5089078;28;19924;-56
2023/10/07 01:10:38;;;;;;;;;;;18.50;89.20;;;;;;5069489;28;20368;-55
2023/10/07 01:13:23;;;;;;;;;;;18.60;89.30;;;;;;5091087;28;19924;-56
2023/10/07 01:15:49;;;;;;;;;;;18.60;89.60;;;;;;5094336;28;19927;-55
2023/10/07 01:18:19;;;;;;;;;;;18.60;89.30;;;;;;5088538;28;20272;-56
2023/10/07 01:23:24;;;;;;;;;;;18.60;89.20;;;;;;5094990;28;20005;-56
2023/10/07 01:25:53;;;;;;;;;;;18.60;89.40;;;;;;5083709;28;19919;-55
2023/10/07 01:28:20;;;;;;;;;;;18.50;89.20;;;;;;5081480;28;19916;-55
2023/10/07 01:31:07;;;;;;;;;;;18.50;89.30;;;;;;5088479;28;19965;-56
2023/10/07 01:33:40;;;;;;;;;;;18.60;89.60;;;;;;5099567;28;19920;-56
2023/10/07 01:36:07;;;;;;;;;;;18.50;89.50;;;;;;5087204;28;19920;-57
2023/10/07 01:38:33;;;;;;;;;;;18.50;89.70;;;;;;5088688;28;19922;-56
2023/10/07 01:41:14;;;;;;;;;;;18.50;89.50;;;;;;5083419;28;20015;-56
2023/10/07 01:43:40;;;;;;;;;;;18.50;89.60;;;;;;5093334;28;19919;-56
2023/10/07 01:46:10;;;;;;;;;;;18.50;89.60;;;;;;5091643;28;19913;-56
2023/10/07 01:48:37;;;;;;;;;;;18.50;89.60;;;;;;5084848;28;19919;-56
2023/10/07 01:51:05;;;;;;;;;;;18.50;89.40;;;;;;5087857;28;19912;-55
2023/10/07 01:53:31;;;;;;;;;;;18.50;89.60;;;;;;5090175;28;20006;-55
2023/10/07 01:55:56;;;;;;;;;;;18.60;89.70;;;;;;5088432;28;19916;-55
2023/10/07 01:58:24;;;;;;;;;;;18.50;89.50;;;;;;5085516;28;20405;-56
2023/10/07 02:00:57;;;;;;;;;;;18.50;89.70;;;;;;5089593;28;19987;-55
2023/10/07 02:03:25;;;;;;;;;;;18.50;89.60;;;;;;5098345;28;19957;-55
2023/10/07 02:05:50;;;;;;;;;;;18.50;89.80;;;;;;5091987;28;20018;-56
2023/10/07 02:08:22;;;;;;;;;;;18.50;89.60;;;;;;5090259;28;19982;-55
2023/10/07 02:10:49;;;;;;;;;;;18.50;89.70;;;;;;5090154;28;19920;-55
2023/10/07 02:13:19;;;;;;;;;;;18.60;89.90;;;;;;5089994;28;19908;-56
2023/10/07 02:15:54;;;;;;;;;;;18.50;89.90;;;;;;5084461;28;19919;-56
2023/10/07 02:18:20;;;;;;;;;;;18.50;89.70;;;;;;5087872;28;20368;-55
2023/10/07 02:21:28;;;;;;;;;;;18.50;89.90;;;;;;5085314;28;20005;-56
2023/10/07 02:23:37;;;;;;;;;;;18.50;90.30;;;;;;5080258;28;19950;-56
2023/10/07 02:26:05;;;;;;;;;;;18.50;89.80;;;;;;5081249;28;19920;-55
2023/10/07 02:28:34;;;;;;;;;;;18.50;89.90;;;;;;5080898;28;19920;-55
2023/10/07 02:31:07;;;;;;;;;;;18.50;90.00;;;;;;5084674;28;19922;-56
2023/10/07 02:33:41;;;;;;;;;;;18.50;90.00;;;;;;5089754;28;19932;-56
2023/10/07 02:36:10;;;;;;;;;;;18.50;90.00;;;;;;5083580;28;19920;-55
2023/10/07 02:38:37;;;;;;;;;;;18.50;90.00;;;;;;5091102;28;19912;-56
2023/10/07 02:41:07;;;;;;;;;;;18.50;90.00;;;;;;5092140;28;19962;-56
2023/10/07 02:43:34;;;;;;;;;;;18.50;90.10;;;;;;5094163;28;20345;-56
2023/10/07 02:46:05;;;;;;;;;;;18.50;90.00;;;;;;5088831;28;19923;-56
2023/10/07 02:48:34;;;;;;;;;;;18.50;90.00;;;;;;5091624;28;19926;-56
2023/10/07 02:51:06;;;;;;;;;;;18.50;90.00;;;;;;5093466;28;19919;-54
2023/10/07 02:53:35;;;;;;;;;;;18.50;89.90;;;;;;5087493;28;19912;-55
2023/10/07 02:56:03;;;;;;;;;;;18.50;90.00;;;;;;5093016;28;19986;-56
2023/10/07 02:58:41;;;;;;;;;;;18.50;90.00;;;;;;5091678;28;19916;-56
2023/10/07 03:01:16;;;;;;;;;;;18.50;89.90;;;;;;5092441;28;19974;-56
2023/10/07 03:03:48;;;;;;;;;;;18.50;89.90;;;;;;5091082;28;19920;-55
2023/10/07 03:06:17;;;;;;;;;;;18.50;90.00;;;;;;5093799;28;19917;-55
2023/10/07 03:11:12;;;;;;;;;;;18.50;90.10;;;;;;5093176;28;20010;-55
2023/10/07 03:13:45;;;;;;;;;;;18.50;89.90;;;;;;5092286;28;19974;-55
2023/10/07 03:18:55;;;;;;;;;;;18.50;89.80;;;;;;5079385;28;19927;-55
2023/10/07 03:21:21;;;;;;;;;;;18.50;90.20;;;;;;5093388;28;19965;-56
2023/10/07 03:23:47;;;;;;;;;;;18.50;89.60;;;;;;5092229;28;21234;-55
2023/10/07 03:26:14;;;;;;;;;;;18.50;89.70;;;;;;5090174;28;19936;-56
2023/10/07 03:28:51;;;;;;;;;;;18.50;89.60;;;;;;5091487;28;19965;-56
2023/10/07 03:31:19;;;;;;;;;;;18.50;89.60;;;;;;5090349;28;19957;-56
2023/10/07 03:33:46;;;;;;;;;;;18.50;89.50;;;;;;5086244;28;19912;-55
2023/10/07 03:38:50;;;;;;;;;;;18.50;89.50;;;;;;5099802;28;19919;-56
2023/10/07 03:41:17;;;;;;;;;;;18.50;89.60;;;;;;5089710;28;20364;-54
2023/10/07 03:43:43;;;;;;;;;;;18.50;89.60;;;;;;5087111;28;20050;-56
2023/10/07 03:46:08;;;;;;;;;;;18.50;89.60;;;;;;5089966;28;20395;-55
2023/10/07 03:48:34;;;;;;;;;;;18.50;89.50;;;;;;5089848;28;19920;-56
2023/10/07 03:50:59;;;;;;;;;;;18.50;89.60;;;;;;5087706;28;20443;-56
2023/10/07 03:53:29;;;;;;;;;;;18.50;89.60;;;;;;5086130;28;20446;-56
2023/10/07 03:55:55;;;;;;;;;;;18.50;89.50;;;;;;5089599;28;19912;-56
2023/10/07 03:58:20;;;;;;;;;;;18.50;89.50;;;;;;5085347;28;20304;-55
2023/10/07 04:00:46;;;;;;;;;;;18.50;89.40;;;;;;5086456;28;20323;-55
2023/10/07 04:03:11;;;;;;;;;;;18.50;89.60;;;;;;5087286;28;19969;-55
2023/10/07 04:05:41;;;;;;;;;;;18.50;89.50;;;;;;5087617;28;19916;-56
2023/10/07 04:08:07;;;;;;;;;;;18.50;89.40;;;;;;5088579;28;19999;-55
2023/10/07 04:10:36;;;;;;;;;;;18.50;89.40;;;;;;5088936;28;20019;-56
2023/10/07 04:13:07;;;;;;;;;;;18.50;89.50;;;;;;5093170;28;19912;-56
2023/10/07 04:15:51;;;;;;;;;;;18.50;89.60;;;;;;5095543;28;20370;-55
2023/10/07 04:18:17;;;;;;;;;;;18.50;89.60;;;;;;5089001;28;19912;-54
2023/10/07 04:20:57;;;;;;;;;;;18.50;89.40;;;;;;5093671;28;19999;-56
2023/10/07 04:23:25;;;;;;;;;;;18.50;89.50;;;;;;5093002;28;19938;-56
2023/10/07 04:26:04;;;;;;;;;;;18.50;89.60;;;;;;5086914;28;20026;-56
2023/10/07 04:28:30;;;;;;;;;;;18.50;89.40;;;;;;5089491;28;19916;-56
2023/10/07 04:30:55;;;;;;;;;;;18.50;89.40;;;;;;5088974;28;19919;-55
2023/10/07 04:33:32;;;;;;;;;;;18.50;89.40;;;;;;5060758;28;19947;-55
2023/10/07 04:36:03;;;;;;;;;;;18.50;90.20;;;;;;5086709;28;19962;-56
2023/10/07 04:43:49;;;;;;;;;;;18.50;89.30;;;;;;5092438;28;20323;-56
2023/10/07 04:46:28;;;;;;;;;;;18.50;89.40;;;;;;5087120;28;20038;-56
2023/10/07 04:49:00;;;;;;;;;;;18.50;89.40;;;;;;5085898;28;20391;-56
2023/10/07 04:51:46;;;;;;;;;;;18.50;89.30;;;;;;5092109;28;19912;-56
2023/10/07 04:54:12;;;;;;;;;;;18.50;89.40;;;;;;5090866;28;20265;-55
2023/10/07 04:56:39;;;;;;;;;;;18.50;89.50;;;;;;5092243;28;20022;-56
2023/10/07 04:59:06;;;;;;;;;;;18.50;89.30;;;;;;5087077;28;19946;-56
2023/10/07 05:01:31;;;;;;;;;;;18.40;89.50;;;;;;5089535;28;19939;-55
2023/10/07 05:03:58;;;;;;;;;;;18.40;89.30;;;;;;5088759;28;19912;-55
2023/10/07 05:06:24;;;;;;;;;;;18.40;89.20;;;;;;5091035;28;19923;-56
2023/10/07 05:08:49;;;;;;;;;;;18.40;89.20;;;;;;5091835;28;19920;-56
2023/10/07 05:11:18;;;;;;;;;;;18.40;89.20;;;;;;5084449;28;19919;-56
2023/10/07 05:13:44;;;;;;;;;;;18.40;89.30;;;;;;5091301;28;19916;-56
2023/10/07 05:16:11;;;;;;;;;;;18.50;89.30;;;;;;5087029;28;20003;-55
2023/10/07 05:18:37;;;;;;;;;;;18.40;89.30;;;;;;5089688;28;19912;-56
2023/10/07 05:21:04;;;;;;;;;;;18.40;89.30;;;;;;5089696;28;19923;-56
2023/10/07 05:23:30;;;;;;;;;;;18.40;89.10;;;;;;5084025;28;20261;-56
2023/10/07 05:25:56;;;;;;;;;;;18.40;89.20;;;;;;5088289;28;19928;-56
2023/10/07 05:28:21;;;;;;;;;;;18.40;89.30;;;;;;5088536;28;19916;-56
2023/10/07 05:30:51;;;;;;;;;;;18.50;89.40;;;;;;5082290;28;19939;-56
2023/10/07 05:33:25;;;;;;;;;;;18.40;89.10;;;;;;5086097;28;19926;-56
2023/10/07 05:35:51;;;;;;;;;;;18.50;89.10;;;;;;5098885;28;19912;-56
2023/10/07 05:38:17;;;;;;;;;;;18.50;89.00;;;;;;5087147;28;19912;-56
2023/10/07 05:40:42;;;;;;;;;;;18.70;88.50;;;;;;5083730;28;19920;-57
2023/10/07 05:43:08;;;;;;;;;;;18.80;88.20;;;;;;5085327;28;19916;-55
2023/10/07 05:45:38;;;;;;;;;;;18.80;87.80;;;;;;5085782;28;20031;-55
2023/10/07 05:48:04;;;;;;;;;;;18.90;87.60;;;;;;5086091;28;20315;-55
2023/10/07 05:50:32;;;;;;;;;;;19.00;87.50;;;;;;5087077;28;20014;-56
2023/10/07 05:53:05;;;;;;;;;;;19.00;87.30;;;;;;5086191;28;19956;-56
2023/10/07 05:55:36;;;;;;;;;;;19.00;86.90;;;;;;5088996;28;19912;-56
2023/10/07 05:58:02;;;;;;;;;;;19.20;86.80;;;;;;5087071;28;19939;-56
2023/10/07 06:00:31;;;;;;;;;;;19.20;86.30;;;;;;5086826;28;19918;-56
2023/10/07 06:02:57;;;;;;;;;;;19.40;85.90;;;;;;5086065;28;19981;-55
2023/10/07 06:05:27;;;;;;;;;;;19.40;85.40;;;;;;5091982;28;19947;-54
2023/10/07 06:07:55;;;;;;;;;;;19.50;85.20;;;;;;5091691;28;19962;-56
2023/10/07 06:10:24;;;;;;;;;;;19.50;85.10;;;;;;5085970;28;19920;-56
2023/10/07 06:12:51;;;;;;;;;;;19.60;85.00;;;;;;5088132;28;20372;-56
2023/10/07 06:15:17;;;;;;;;;;;19.70;84.70;;;;;;5086673;28;20436;-55
2023/10/07 06:17:43;;;;;;;;;;;19.80;84.30;;;;;;5083710;28;19959;-55
2023/10/07 06:20:14;;;;;;;;;;;19.80;84.20;;;;;;5085688;28;19970;-56
2023/10/07 06:22:46;;;;;;;;;;;19.80;84.10;;;;;;5093140;28;19924;-56
2023/10/07 06:25:12;;;;;;;;;;;19.80;84.20;;;;;;5084694;28;19924;-55
2023/10/07 06:27:39;;;;;;;;;;;19.70;84.20;;;;;;5083257;28;19935;-56
2023/10/07 06:30:04;;;;;;;;;;;19.70;84.30;;;;;;5083734;28;19912;-55
2023/10/07 06:32:43;;;;;;;;;;;19.80;84.30;;;;;;5085157;28;20349;-56
2023/10/07 06:35:13;;;;;;;;;;;19.80;84.20;;;;;;5092324;28;19923;-56
2023/10/07 06:37:41;;;;;;;;;;;19.80;84.00;;;;;;5088944;28;19995;-55
2023/10/07 06:40:24;;;;;;;;;;;19.80;84.00;;;;;;5087637;28;20023;-55
2023/10/07 06:42:51;;;;;;;;;;;19.80;84.10;;;;;;5089965;28;19955;-55
2023/10/07 06:45:19;;;;;;;;;;;19.90;83.80;;;;;;5078778;28;19916;-56
2023/10/07 06:47:48;;;;;;;;;;;20.30;82.30;;;;;;5081793;28;19913;-55
2023/10/07 06:50:19;;;;;;;;;;;20.70;80.80;;;;;;5089760;28;19916;-55
2023/10/07 06:52:45;;;;;;;;;;;20.70;80.30;;;;;;5091119;28;20311;-54
2023/10/07 06:55:15;;;;;;;;;;;20.80;80.20;;;;;;5083239;28;19912;-56
2023/10/07 06:57:42;;;;;;;;;;;20.90;79.80;;;;;;5096499;28;19912;-56
2023/10/07 07:00:13;;;;;;;;;;;21.10;79.40;;;;;;5088916;28;19920;-55
2023/10/07 07:02:40;;;;;;;;;;;21.20;78.80;;;;;;5091594;28;20050;-55
2023/10/07 07:05:12;;;;;;;;;;;21.30;78.30;;;;;;5084120;28;19931;-55
2023/10/07 07:07:38;;;;;;;;;;;21.30;78.20;;;;;;5084203;28;19912;-56
2023/10/07 07:10:07;;;;;;;;;;;21.10;78.60;;;;;;5083811;28;19939;-56
2023/10/07 07:12:33;;;;;;;;;;;21.10;79.20;;;;;;5086132;28;19912;-56
2023/10/07 07:15:26;;;;;;;;;;;20.90;79.60;;;;;;5078243;28;20402;-56
2023/10/07 07:18:02;;;;;;;;;;;20.80;79.70;;;;;;5084197;28;19920;-55
2023/10/07 07:20:48;;;;;;;;;;;20.80;80.20;;;;;;5090873;28;19927;-55
2023/10/07 07:23:17;;;;;;;;;;;20.70;80.30;;;;;;5084907;28;21663;-55
2023/10/07 07:25:43;;;;;;;;;;;20.70;81.60;;;;;;5077093;28;19923;-55
2023/10/07 07:28:09;;;;;;;;;;;20.60;81.10;;;;;;5086981;28;20421;-56
2023/10/07 07:30:35;;;;;;;;;;;20.50;81.50;;;;;;5089128;28;19920;-57
2023/10/07 07:33:12;;;;;;;;;;;20.40;81.80;;;;;;5087646;28;19928;-56
2023/10/07 07:35:42;;;;;;;;;;;20.40;82.00;;;;;;5088875;28;19923;-56
2023/10/07 07:38:30;;;;;;;;;;;20.40;82.80;;;;;;5084253;28;19917;-55
2023/10/07 07:41:05;;;;;;;;;;;20.40;82.00;;;;;;5088175;28;20335;-55
2023/10/07 07:43:31;;;;;;;;;;;20.40;82.30;;;;;;5095144;28;20368;-56
2023/10/07 07:46:18;;;;;;;;;;;20.30;82.30;;;;;;5086532;28;19935;-55
2023/10/07 07:48:50;;;;;;;;;;;20.40;82.60;;;;;;5087434;28;19916;-55
2023/10/07 07:51:17;;;;;;;;;;;20.30;82.60;;;;;;5091667;28;20403;-56
2023/10/07 07:53:43;;;;;;;;;;;20.30;82.40;;;;;;5086504;28;19912;-56
2023/10/07 07:56:12;;;;;;;;;;;20.40;82.40;;;;;;5090050;28;19919;-54
2023/10/07 07:58:38;;;;;;;;;;;20.40;82.30;;;;;;5086453;28;19913;-55
2023/10/07 08:01:08;;;;;;;;;;;20.40;82.40;;;;;;5087469;28;19931;-54
2023/10/07 08:03:35;;;;;;;;;;;20.40;82.60;;;;;;5094951;28;20349;-55
2023/10/07 08:06:04;;;;;;;;;;;20.40;83.70;;;;;;5083462;28;19916;-56
2023/10/07 08:08:30;;;;;;;;;;;20.30;83.10;;;;;;5087748;28;19912;-56
2023/10/07 08:10:55;;;;;;;;;;;20.30;83.10;;;;;;5088441;28;20280;-55
2023/10/07 08:13:23;;;;;;;;;;;20.30;83.20;;;;;;5090212;28;19924;-55
2023/10/07 08:15:52;;;;;;;;;;;20.30;83.10;;;;;;5091598;28;19920;-56
2023/10/07 08:18:22;;;;;;;;;;;20.30;83.30;;;;;;5093441;28;19934;-55
2023/10/07 08:20:49;;;;;;;;;;;20.30;83.40;;;;;;5100240;28;20379;-56
2023/10/07 08:23:28;;;;;;;;;;;20.30;83.50;;;;;;5084059;28;20360;-55
2023/10/07 08:26:10;;;;;;;;;;;20.30;83.50;;;;;;5085909;28;19924;-56
2023/10/07 08:31:27;;;;;;;;;;;20.40;83.10;;;;;;5083272;22;19933;-73
2023/10/07 08:36:36;;;;;;;;;;;20.40;82.80;;;;;;5063966;28;19966;-73
2023/10/07 08:39:05;;;;;;;;;;;20.40;83.10;;;;;;5052707;22;20058;-54
2023/10/07 08:41:31;;;;;;;;;;;20.40;83.20;;;;;;5066335;28;19938;-55
2023/10/07 08:44:13;;;;;;;;;;;20.40;83.40;;;;;;5059883;28;19916;-56
2023/10/07 08:46:48;;;;;;;;;;;20.30;83.30;;;;;;5071713;28;19920;-56
2023/10/07 08:49:15;;;;;;;;;;;20.40;83.20;;;;;;5066164;28;19916;-56
2023/10/07 08:51:44;;;;;;;;;;;20.40;83.10;;;;;;5070898;28;19920;-55
2023/10/07 08:54:19;;;;;;;;;;;20.40;83.10;;;;;;5069601;28;19967;-56
2023/10/07 08:56:54;;;;;;;;;;;20.40;83.30;;;;;;5069552;28;19952;-56
2023/10/07 08:59:22;;;;;;;;;;;20.40;83.70;;;;;;5069212;28;19920;-56
2023/10/07 09:01:48;;;;;;;;;;;20.40;83.70;;;;;;5066366;28;19916;-56
2023/10/07 09:04:13;;;;;;;;;;;20.40;83.80;;;;;;5048209;28;19966;-56
2023/10/07 09:06:50;;;;;;;;;;;20.40;83.60;;;;;;5065669;28;19927;-56
2023/10/07 09:09:32;;;;;;;;;;;20.40;83.40;;;;;;5075461;28;19912;-56
2023/10/07 09:12:02;;;;;;;;;;;20.40;83.50;;;;;;5068206;28;19919;-56
2023/10/07 09:14:28;;;;;;;;;;;20.40;83.60;;;;;;5065258;28;20304;-55
2023/10/07 09:16:54;;;;;;;;;;;20.30;83.70;;;;;;5070015;28;19930;-55
2023/10/07 09:19:23;;;;;;;;;;;20.40;84.50;;;;;;5068445;28;19951;-55
2023/10/07 09:21:57;;;;;;;;;;;20.40;83.80;;;;;;5065959;28;19999;-56
2023/10/07 09:24:25;;;;;;;;;;;20.40;83.60;;;;;;5074581;28;20383;-55
2023/10/07 09:26:57;;;;;;;;;;;20.40;83.40;;;;;;5069863;28;20357;-55
2023/10/07 09:29:24;;;;;;;;;;;20.30;83.40;;;;;;5068084;28;19912;-56
2023/10/07 09:32:16;;;;;;;;;;;20.30;83.60;;;;;;5070798;28;20015;-56
2023/10/07 09:34:41;;;;;;;;;;;20.30;83.60;;;;;;5065434;28;20007;-56
2023/10/07 09:37:26;;;;;;;;;;;20.30;83.70;;;;;;5065214;28;19996;-56
2023/10/07 09:39:55;;;;;;;;;;;20.40;83.90;;;;;;5060306;28;19924;-56
2023/10/07 09:42:27;;;;;;;;;;;20.40;83.50;;;;;;5063831;28;19998;-55
2023/10/07 09:45:00;;;;;;;;;;;20.40;83.50;;;;;;5049959;28;19920;-56
2023/10/07 09:47:27;;;;;;;;;;;20.40;83.60;;;;;;5061501;28;19919;-55
2023/10/07 09:49:59;;;;;;;;;;;20.30;83.60;;;;;;5059245;28;19923;-56
2023/10/07 09:52:29;;;;;;;;;;;20.40;83.50;;;;;;5075360;28;19920;-55
2023/10/07 09:55:22;;;;;;;;;;;20.40;83.50;;;;;;5047272;28;19913;-55
2023/10/07 09:57:58;;;;;;;;;;;20.40;83.60;;;;;;5059047;28;19926;-56
2023/10/07 10:00:38;;;;;;;;;;;20.30;83.70;;;;;;5046483;28;20447;-55
2023/10/07 10:03:28;;;;;;;;;;;20.30;83.60;;;;;;5058043;28;19919;-56
2023/10/07 10:06:16;;;;;;;;;;;20.30;83.60;;;;;;5063685;28;20418;-55
2023/10/07 10:08:56;;;;;;;;;;;20.30;83.60;;;;;;5061949;28;19913;-55
2023/10/07 10:11:31;;;;;;;;;;;20.30;83.60;;;;;;5049601;28;19919;-56
2023/10/07 10:14:16;;;;;;;;;;;20.30;83.70;;;;;;5064224;28;20003;-56
2023/10/07 10:16:46;;;;;;;;;;;20.30;83.60;;;;;;5075879;28;19965;-56
2023/10/07 10:19:17;;;;;;;;;;;20.30;83.50;;;;;;5046724;28;19917;-56
2023/10/07 10:21:44;;;;;;;;;;;20.40;83.60;;;;;;5052740;28;19919;-55
2023/10/07 10:24:15;;;;;;;;;;;20.40;83.40;;;;;;5066378;28;19921;-56
2023/10/07 10:26:41;;;;;;;;;;;20.40;83.40;;;;;;5069811;28;19913;-55
2023/10/07 10:29:15;;;;;;;;;;;20.40;83.40;;;;;;5068228;28;19920;-55
2023/10/07 10:31:48;;;;;;;;;;;20.30;83.40;;;;;;5072022;28;19917;-56
2023/10/07 10:34:14;;;;;;;;;;;20.30;83.40;;;;;;5065856;28;19916;-54
2023/10/07 10:36:43;;;;;;;;;;;20.30;83.50;;;;;;5066957;28;19916;-56
2023/10/07 10:39:19;;;;;;;;;;;20.30;83.60;;;;;;5063939;28;19924;-56
2023/10/07 10:41:44;;;;;;;;;;;20.40;83.40;;;;;;5061739;28;19916;-55
2023/10/07 10:44:10;;;;;;;;;;;20.40;83.10;;;;;;5045163;28;19920;-56
2023/10/07 10:46:46;;;;;;;;;;;20.40;83.30;;;;;;5065300;28;20436;-56
2023/10/07 10:49:18;;;;;;;;;;;20.40;83.30;;;;;;5063864;28;19991;-56
2023/10/07 10:51:55;;;;;;;;;;;20.30;83.30;;;;;;5062898;28;19924;-56
2023/10/07 10:54:21;;;;;;;;;;;20.30;83.40;;;;;;5058011;28;19933;-55
2023/10/07 10:56:50;;;;;;;;;;;20.30;83.40;;;;;;5046007;28;19917;-56
2023/10/07 10:59:16;;;;;;;;;;;20.40;83.20;;;;;;5069075;28;19913;-56
2023/10/07 11:01:44;;;;;;;;;;;20.40;83.10;;;;;;5068583;28;19919;-55
2023/10/07 11:04:15;;;;;;;;;;;20.40;83.10;;;;;;5070489;28;20109;-55
2023/10/07 11:06:40;;;;;;;;;;;20.40;83.20;;;;;;5071903;28;20348;-55
2023/10/07 11:09:06;;;;;;;;;;;20.40;83.10;;;;;;5068354;28;19928;-55
2023/10/07 11:11:35;;;;;;;;;;;20.40;84.10;;;;;;5054037;28;20046;-56
2023/10/07 11:14:10;;;;;;;;;;;20.40;83.20;;;;;;5069855;28;19916;-55
2023/10/07 11:16:48;;;;;;;;;;;20.40;83.10;;;;;;5066913;28;20014;-56
2023/10/07 11:19:14;;;;;;;;;;;20.40;83.10;;;;;;5055141;28;19916;-55
2023/10/07 11:21:48;;;;;;;;;;;20.40;83.00;;;;;;5069738;28;19923;-54
2023/10/07 11:24:27;;;;;;;;;;;20.40;83.10;;;;;;5066615;28;19963;-55
2023/10/07 11:26:52;;;;;;;;;;;20.40;83.10;;;;;;5067973;28;19913;-55
2023/10/07 11:29:18;;;;;;;;;;;20.40;83.10;;;;;;5067890;28;19919;-56
2023/10/07 11:31:45;;;;;;;;;;;20.40;82.80;;;;;;5064684;28;20347;-55
2023/10/07 11:34:12;;;;;;;;;;;20.50;82.80;;;;;;5068150;28;20378;-56
2023/10/07 11:36:44;;;;;;;;;;;20.50;82.90;;;;;;5073942;28;20438;-56
2023/10/07 11:39:13;;;;;;;;;;;20.50;83.10;;;;;;5061516;28;19924;-56
2023/10/07 11:41:38;;;;;;;;;;;20.50;83.10;;;;;;5049618;28;19929;-56
2023/10/07 11:44:04;;;;;;;;;;;20.50;83.00;;;;;;5049407;28;19939;-55
2023/10/07 11:46:30;;;;;;;;;;;20.40;83.20;;;;;;5053805;28;19916;-55
2023/10/07 11:48:56;;;;;;;;;;;20.40;83.20;;;;;;5068119;22;19932;-56
2023/10/07 11:51:23;;;;;;;;;;;20.40;83.40;;;;;;5071430;28;19935;-55
2023/10/07 11:53:50;;;;;;;;;;;20.40;83.30;;;;;;5070858;28;19976;-56
2023/10/07 11:56:15;;;;;;;;;;;20.40;83.70;;;;;;5058966;28;20295;-56
2023/10/07 11:58:42;;;;;;;;;;;20.30;83.90;;;;;;5068363;28;20003;-56
2023/10/07 12:01:07;;;;;;;;;;;20.30;84.20;;;;;;5066737;28;19912;-56
2023/10/07 12:03:34;;;;;;;;;;;20.30;84.30;;;;;;5069355;28;19924;-57
2023/10/07 12:05:59;;;;;;;;;;;20.30;84.00;;;;;;5070621;28;19916;-55
2023/10/07 12:08:25;;;;;;;;;;;20.30;83.80;;;;;;5070204;28;20025;-56
2023/10/07 12:10:51;;;;;;;;;;;20.40;83.80;;;;;;5068459;28;19916;-54
2023/10/07 12:13:19;;;;;;;;;;;20.40;83.50;;;;;;5069866;28;19935;-56
2023/10/07 12:15:45;;;;;;;;;;;20.40;83.40;;;;;;5070610;28;19927;-56
2023/10/07 12:18:12;;;;;;;;;;;20.50;83.20;;;;;;5070329;28;19948;-55
2023/10/07 12:20:38;;;;;;;;;;;20.60;83.00;;;;;;5054580;28;20347;-56
2023/10/07 12:23:04;;;;;;;;;;;20.60;82.70;;;;;;5065841;28;19921;-55
2023/10/07 12:25:30;;;;;;;;;;;20.60;82.50;;;;;;5067880;28;19916;-55
2023/10/07 12:27:56;;;;;;;;;;;20.60;82.40;;;;;;5070423;28;20529;-55
2023/10/07 12:30:22;;;;;;;;;;;20.50;82.60;;;;;;5065791;28;19912;-56
2023/10/07 12:32:50;;;;;;;;;;;20.40;82.90;;;;;;5068375;28;19920;-57
2023/10/07 12:35:15;;;;;;;;;;;20.40;83.10;;;;;;5065450;28;19913;-57
2023/10/07 12:37:46;;;;;;;;;;;20.30;83.30;;;;;;5068983;28;20299;-56
2023/10/07 12:40:17;;;;;;;;;;;20.30;83.00;;;;;;5035270;28;20359;-57
2023/10/07 12:42:43;;;;;;;;;;;20.30;83.10;;;;;;5058848;28;20014;-57
2023/10/07 12:45:11;;;;;;;;;;;20.30;83.10;;;;;;5071968;28;19927;-57
2023/10/07 12:47:39;;;;;;;;;;;20.30;83.30;;;;;;5065919;28;20365;-57
2023/10/07 12:50:20;;;;;;;;;;;20.30;83.30;;;;;;5049143;28;20896;-56
2023/10/07 12:52:46;;;;;;;;;;;20.30;83.00;;;;;;5054851;28;19964;-56
2023/10/07 12:55:12;;;;;;;;;;;20.30;83.00;;;;;;5049591;28;20324;-57
2023/10/07 12:57:40;;;;;;;;;;;20.30;83.00;;;;;;5047642;28;19920;-56
2023/10/07 13:00:18;;;;;;;;;;;20.20;83.00;;;;;;5042586;28;19920;-56
2023/10/07 13:02:45;;;;;;;;;;;20.10;83.10;;;;;;5053605;28;19982;-57
2023/10/07 13:05:17;;;;;;;;;;;19.90;83.60;;;;;;5049034;28;19960;-56
2023/10/07 13:07:53;;;;;;;;;;;19.80;83.90;;;;;;5055378;28;20235;-56
2023/10/07 13:10:19;;;;;;;;;;;19.80;84.20;;;;;;5029094;28;19961;-56
2023/10/07 13:12:44;;;;;;;;;;;19.80;84.20;;;;;;5047758;28;20422;-57
2023/10/07 13:15:18;;;;;;;;;;;19.80;84.00;;;;;;5045781;28;20023;-56
2023/10/07 13:17:46;;;;;;;;;;;19.90;83.80;;;;;;5030961;28;20675;-57
2023/10/07 13:22:48;;;;;;;;;;;20.10;83.50;;;;;;5057333;28;19925;-52
2023/10/07 13:25:14;;;;;;;;;;;20.20;83.10;;;;;;5060062;28;19927;-55
2023/10/07 13:27:40;;;;;;;;;;;20.20;82.90;;;;;;5085583;22;19932;-55
2023/10/07 13:30:11;;;;;;;;;;;20.30;83.00;;;;;;5064580;28;20038;-55
2023/10/07 13:32:40;;;;;;;;;;;20.30;82.90;;;;;;5074704;28;19919;-55
2023/10/07 13:35:09;;;;;;;;;;;20.50;82.30;;;;;;5069421;28;20027;-55
2023/10/07 13:37:37;;;;;;;;;;;20.50;81.70;;;;;;5050529;23;19949;-72
2023/10/07 13:40:07;;;;;;;;;;;20.40;81.90;;;;;;5020730;28;19921;-71
2023/10/07 13:42:33;;;;;;;;;;;20.30;82.40;;;;;;5036995;28;19958;-74
2023/10/07 13:45:03;;;;;;;;;;;20.30;82.60;;;;;;5013920;28;19929;-73
2023/10/07 13:47:31;;;;;;;;;;;20.20;82.60;;;;;;5034703;28;19917;-74
2023/10/07 13:49:57;;;;;;;;;;;20.30;82.60;;;;;;4991486;28;19979;-74
2023/10/07 13:52:23;;;;;;;;;;;20.10;82.50;;;;;;5015934;28;19979;-73
2023/10/07 13:55:13;;;;;;;;;;;20.20;82.30;;;;;;5002425;28;19927;-74
2023/10/07 13:57:34;;;;;;;;;;;20.10;82.00;;;;;;4999671;28;20012;-74
2023/10/07 14:00:01;;;;;;;;;;;20.00;82.20;;;;;;5012527;28;20004;-74
2023/10/07 14:02:27;;;;;;;;;;;20.00;82.50;;;;;;4993761;28;19914;-74
2023/10/07 14:04:57;;;;;;;;;;;20.00;82.10;;;;;;4997166;28;19921;-74
2023/10/07 14:07:23;;;;;;;;;;;20.00;81.90;;;;;;4997835;28;19929;-74
2023/10/07 14:09:49;;;;;;;;;;;20.00;81.80;;;;;;5008319;28;19917;-73
2023/10/07 14:12:16;;;;;;;;;;;20.00;81.80;;;;;;5005615;28;19914;-74
2023/10/07 14:14:43;;;;;;;;;;;19.90;81.90;;;;;;4993431;28;19920;-74
2023/10/07 14:17:09;;;;;;;;;;;19.90;81.80;;;;;;5007809;23;19938;-55
2023/10/07 14:19:37;;;;;;;;;;;19.90;82.10;;;;;;5026757;28;19940;-55
2023/10/07 14:22:04;;;;;;;;;;;19.90;81.20;;;;;;5027390;28;19917;-55
2023/10/07 14:24:30;;;;;;;;;;;20.00;81.40;;;;;;5022011;28;19940;-56
2023/10/07 14:26:56;;;;;;;;;;;20.00;81.30;;;;;;5027930;28;20361;-55
2023/10/07 14:29:22;;;;;;;;;;;20.00;81.30;;;;;;5028515;28;19922;-55
2023/10/07 14:31:48;;;;;;;;;;;19.90;81.90;;;;;;5024862;28;19913;-55
2023/10/07 14:34:14;;;;;;;;;;;19.90;82.10;;;;;;5029636;28;19967;-54
2023/10/07 14:36:40;;;;;;;;;;;19.90;82.00;;;;;;5025885;28;19936;-54
2023/10/07 14:39:12;;;;;;;;;;;19.90;81.70;;;;;;5032985;28;19921;-54
2023/10/07 14:41:39;;;;;;;;;;;19.90;81.70;;;;;;5033327;28;19936;-54
2023/10/07 14:44:04;;;;;;;;;;;20.00;81.90;;;;;;5033893;28;19921;-53
2023/10/07 14:46:30;;;;;;;;;;;20.00;81.80;;;;;;5030636;28;19924;-52
2023/10/07 14:48:57;;;;;;;;;;;20.00;81.60;;;;;;5030976;28;19964;-55
2023/10/07 14:51:22;;;;;;;;;;;20.00;81.80;;;;;;5019185;28;19984;-56
2023/10/07 14:53:48;;;;;;;;;;;20.00;81.90;;;;;;5017951;28;19917;-56
2023/10/07 14:56:21;;;;;;;;;;;20.10;81.80;;;;;;5012511;28;19922;-55
2023/10/07 14:58:47;;;;;;;;;;;20.10;81.60;;;;;;5011736;28;19917;-56
2023/10/07 15:01:13;;;;;;;;;;;20.20;81.70;;;;;;5007864;28;19924;-56